sensor_id;sensor_type;location;lat;lon;timestamp;pressure;altitude;pressure_sealevel;temperature;humidity
55757;BME280;41676;44.610;44.078;2022-08-25T00:02:54;100235.22;;;20.97;65.26
55757;BME280;41676;44.610;44.078;2022-08-25T00:07:56;100172.88;;;20.59;66.01
55757;BME280;41676;44.610;44.078;2022-08-25T00:12:57;100250.00;;;21.07;66.70
55757;BME280;41676;44.610;44.078;2022-08-25T00:17:58;100174.50;;;20.60;67.26
55757;BME280;41676;44.610;44.078;2022-08-25T00:23:00;100162.41;;;20.50;67.88
55757;BME280;41676;44.610;44.078;2022-08-25T00:28:01;100145.31;;;20.45;68.41
55757;BME280;41676;44.610;44.078;2022-08-25T00:33:02;100163.25;;;20.51;69.09
55757;BME280;41676;44.610;44.078;2022-08-25T00:38:03;100227.94;;;20.98;69.56
55757;BME280;41676;44.610;44.078;2022-08-25T00:43:05;100216.09;;;20.87;70.09
55757;BME280;41676;44.610;44.078;2022-08-25T00:48:06;100146.59;;;20.42;70.48
55757;BME280;41676;44.610;44.078;2022-08-25T00:53:07;100150.34;;;20.41;70.90
55757;BME280;41676;44.610;44.078;2022-08-25T00:58:13;100167.94;;;20.44;73.23
55757;BME280;41676;44.610;44.078;2022-08-25T01:03:16;100170.78;;;20.37;72.43
55757;BME280;41676;44.610;44.078;2022-08-25T01:08:24;100167.97;;;20.32;73.51
55757;BME280;41676;44.610;44.078;2022-08-25T01:13:50;100236.22;;;20.80;74.90
55757;BME280;41676;44.610;44.078;2022-08-25T01:18:56;100225.78;;;20.60;74.30
55757;BME280;41676;44.610;44.078;2022-08-25T01:23:58;100169.38;;;20.23;74.49
55757;BME280;41676;44.610;44.078;2022-08-25T01:29:02;100238.13;;;20.67;74.71
55757;BME280;41676;44.610;44.078;2022-08-25T01:34:24;100238.94;;;20.56;74.88
55757;BME280;41676;44.610;44.078;2022-08-25T01:39:27;100257.81;;;20.68;75.13
55757;BME280;41676;44.610;44.078;2022-08-25T01:44:30;100216.75;;;20.42;74.88
55757;BME280;41676;44.610;44.078;2022-08-25T01:49:31;100256.06;;;20.62;75.28
55757;BME280;41676;44.610;44.078;2022-08-25T01:54:32;100227.66;;;20.47;75.04
55757;BME280;41676;44.610;44.078;2022-08-25T01:59:33;100249.50;;;20.58;75.46
55757;BME280;41676;44.610;44.078;2022-08-25T02:04:34;100268.63;;;20.56;75.46
55757;BME280;41676;44.610;44.078;2022-08-25T02:09:35;100262.41;;;20.56;75.89
55757;BME280;41676;44.610;44.078;2022-08-25T02:14:36;100242.44;;;20.45;75.59
55757;BME280;41676;44.610;44.078;2022-08-25T02:19:37;100241.63;;;20.44;75.85
55757;BME280;41676;44.610;44.078;2022-08-25T02:24:38;100254.97;;;20.51;76.03
55757;BME280;41676;44.610;44.078;2022-08-25T02:29:39;100251.81;;;20.42;75.87
55757;BME280;41676;44.610;44.078;2022-08-25T02:34:40;100261.81;;;20.54;75.78
55757;BME280;41676;44.610;44.078;2022-08-25T02:39:41;100254.16;;;20.50;75.54
55757;BME280;41676;44.610;44.078;2022-08-25T02:44:42;100215.72;;;20.32;75.56
55757;BME280;41676;44.610;44.078;2022-08-25T02:49:42;100290.31;;;20.73;75.25
55757;BME280;41676;44.610;44.078;2022-08-25T02:54:44;100295.22;;;20.88;74.96
55757;BME280;41676;44.610;44.078;2022-08-25T02:59:44;100281.69;;;21.00;74.33
55757;BME280;41676;44.610;44.078;2022-08-25T03:04:47;100290.38;;;21.13;73.51
55757;BME280;41676;44.610;44.078;2022-08-25T03:09:48;100305.81;;;21.41;72.78
55757;BME280;41676;44.610;44.078;2022-08-25T03:14:49;100218.25;;;21.14;71.79
55757;BME280;41676;44.610;44.078;2022-08-25T03:19:50;100227.41;;;21.70;70.15
55757;BME280;41676;44.610;44.078;2022-08-25T03:24:51;100287.94;;;22.48;68.51
55757;BME280;41676;44.610;44.078;2022-08-25T03:29:51;100276.53;;;23.02;66.45
55757;BME280;41676;44.610;44.078;2022-08-25T03:34:52;100267.09;;;23.81;63.81
55757;BME280;41676;44.610;44.078;2022-08-25T03:39:53;100277.03;;;24.72;61.13
55757;BME280;41676;44.610;44.078;2022-08-25T03:44:54;100252.44;;;25.09;58.18
55757;BME280;41676;44.610;44.078;2022-08-25T03:49:55;100289.38;;;25.73;55.92
55757;BME280;41676;44.610;44.078;2022-08-25T03:54:55;100169.66;;;25.47;54.49
55757;BME280;41676;44.610;44.078;2022-08-25T03:59:56;100288.84;;;26.53;52.89
55757;BME280;41676;44.610;44.078;2022-08-25T04:04:57;100266.47;;;26.71;51.22
55757;BME280;41676;44.610;44.078;2022-08-25T04:09:58;100284.84;;;27.10;49.65
55757;BME280;41676;44.610;44.078;2022-08-25T04:14:59;100292.66;;;27.42;47.70
55757;BME280;41676;44.610;44.078;2022-08-25T04:20:01;100307.31;;;27.57;46.71
55757;BME280;41676;44.610;44.078;2022-08-25T04:25:03;100303.19;;;27.64;45.34
55757;BME280;41676;44.610;44.078;2022-08-25T04:30:05;100304.03;;;27.99;44.83
55757;BME280;41676;44.610;44.078;2022-08-25T04:35:06;100298.00;;;28.36;43.32
55757;BME280;41676;44.610;44.078;2022-08-25T04:40:08;100298.50;;;28.43;42.40
55757;BME280;41676;44.610;44.078;2022-08-25T04:45:10;100266.41;;;28.25;41.33
55757;BME280;41676;44.610;44.078;2022-08-25T04:50:10;100255.75;;;27.94;40.49
55757;BME280;41676;44.610;44.078;2022-08-25T04:55:11;100222.72;;;27.57;39.64
55757;BME280;41676;44.610;44.078;2022-08-25T05:00:13;100287.84;;;27.68;39.14
55757;BME280;41676;44.610;44.078;2022-08-25T05:05:14;100193.81;;;27.06;38.13
55757;BME280;41676;44.610;44.078;2022-08-25T05:10:15;100222.13;;;27.25;37.19
55757;BME280;41676;44.610;44.078;2022-08-25T05:15:16;100291.31;;;27.84;34.26
55757;BME280;41676;44.610;44.078;2022-08-25T05:20:38;100289.78;;;28.07;33.05
55757;BME280;41676;44.610;44.078;2022-08-25T05:25:39;100276.72;;;28.33;32.07
55757;BME280;41676;44.610;44.078;2022-08-25T05:30:41;100189.13;;;27.95;31.20
55757;BME280;41676;44.610;44.078;2022-08-25T05:35:42;100252.28;;;28.47;30.39
55757;BME280;41676;44.610;44.078;2022-08-25T05:40:44;100270.97;;;28.88;30.44
55757;BME280;41676;44.610;44.078;2022-08-25T05:45:45;100219.19;;;28.73;29.88
55757;BME280;41676;44.610;44.078;2022-08-25T05:50:54;100245.22;;;29.13;28.95
55757;BME280;41676;44.610;44.078;2022-08-25T05:55:56;100202.53;;;28.93;29.12
55757;BME280;41676;44.610;44.078;2022-08-25T06:00:58;100262.91;;;29.58;27.47
55757;BME280;41676;44.610;44.078;2022-08-25T06:06:20;100260.25;;;29.53;27.10
55757;BME280;41676;44.610;44.078;2022-08-25T06:11:23;100232.09;;;29.72;26.49
55757;BME280;41676;44.610;44.078;2022-08-25T06:16:24;100164.72;;;29.38;25.03
55757;BME280;41676;44.610;44.078;2022-08-25T06:21:25;100256.13;;;30.08;24.47
55757;BME280;41676;44.610;44.078;2022-08-25T06:26:26;100194.53;;;30.05;25.33
55757;BME280;41676;44.610;44.078;2022-08-25T06:31:26;100250.34;;;30.56;24.36
55757;BME280;41676;44.610;44.078;2022-08-25T06:36:27;100263.84;;;30.66;24.34
55757;BME280;41676;44.610;44.078;2022-08-25T06:41:28;100262.63;;;30.72;24.08
55757;BME280;41676;44.610;44.078;2022-08-25T06:46:29;100251.69;;;30.86;23.86
55757;BME280;41676;44.610;44.078;2022-08-25T06:51:31;100224.66;;;30.93;23.89
55757;BME280;41676;44.610;44.078;2022-08-25T06:56:33;100226.16;;;30.99;22.92
55757;BME280;41676;44.610;44.078;2022-08-25T07:01:34;100173.19;;;30.76;23.04
55757;BME280;41676;44.610;44.078;2022-08-25T07:06:35;100225.81;;;31.28;21.81
55757;BME280;41676;44.610;44.078;2022-08-25T07:11:38;100229.78;;;31.58;22.48
55757;BME280;41676;44.610;44.078;2022-08-25T07:16:40;100228.22;;;31.44;22.02
55757;BME280;41676;44.610;44.078;2022-08-25T07:21:41;100185.25;;;31.39;22.09
55757;BME280;41676;44.610;44.078;2022-08-25T07:26:44;100214.53;;;31.66;22.00
55757;BME280;41676;44.610;44.078;2022-08-25T07:31:46;100202.09;;;31.69;21.62
55757;BME280;41676;44.610;44.078;2022-08-25T07:36:47;100202.91;;;31.92;22.53
55757;BME280;41676;44.610;44.078;2022-08-25T07:41:48;100186.28;;;31.97;22.07
55757;BME280;41676;44.610;44.078;2022-08-25T07:46:50;100193.16;;;32.48;22.51
55757;BME280;41676;44.610;44.078;2022-08-25T07:51:52;100181.69;;;32.46;21.60
55757;BME280;41676;44.610;44.078;2022-08-25T07:56:53;100182.72;;;32.67;21.44
55757;BME280;41676;44.610;44.078;2022-08-25T08:01:54;100166.19;;;32.50;21.56
55757;BME280;41676;44.610;44.078;2022-08-25T08:06:55;100129.25;;;32.42;21.88
55757;BME280;41676;44.610;44.078;2022-08-25T08:11:57;100144.88;;;32.64;22.06
55757;BME280;41676;44.610;44.078;2022-08-25T08:16:57;100156.88;;;32.86;21.69
55757;BME280;41676;44.610;44.078;2022-08-25T08:21:59;100028.97;;;32.31;21.78
55757;BME280;41676;44.610;44.078;2022-08-25T08:27:00;100150.25;;;33.30;20.96
55757;BME280;41676;44.610;44.078;2022-08-25T08:32:04;100065.09;;;32.90;21.71
55757;BME280;41676;44.610;44.078;2022-08-25T08:37:05;100146.84;;;33.42;21.03
55757;BME280;41676;44.610;44.078;2022-08-25T08:42:15;100134.38;;;33.45;20.24
55757;BME280;41676;44.610;44.078;2022-08-25T08:52:42;100129.34;;;33.55;19.73
55757;BME280;41676;44.610;44.078;2022-08-25T08:57:48;100090.81;;;33.38;20.55
55757;BME280;41676;44.610;44.078;2022-08-25T09:02:56;100104.84;;;33.62;20.69
55757;BME280;41676;44.610;44.078;2022-08-25T09:08:10;100058.25;;;33.40;19.42
55757;BME280;41676;44.610;44.078;2022-08-25T09:18:42;100085.94;;;33.52;20.37
55757;BME280;41676;44.610;44.078;2022-08-25T09:29:07;100087.31;;;33.84;21.34
55757;BME280;41676;44.610;44.078;2022-08-25T09:34:16;100086.13;;;33.94;20.65
55757;BME280;41676;44.610;44.078;2022-08-25T09:39:18;100063.59;;;33.92;20.77
55757;BME280;41676;44.610;44.078;2022-08-25T09:44:24;100105.09;;;34.04;20.97
55757;BME280;41676;44.610;44.078;2022-08-25T09:49:31;100087.00;;;33.77;21.18
55757;BME280;41676;44.610;44.078;2022-08-25T09:54:36;100079.53;;;33.86;21.36
55757;BME280;41676;44.610;44.078;2022-08-25T09:59:38;100042.66;;;33.61;21.36
55757;BME280;41676;44.610;44.078;2022-08-25T10:04:39;100077.81;;;33.64;21.60
55757;BME280;41676;44.610;44.078;2022-08-25T10:09:42;100042.03;;;33.47;21.02
55757;BME280;41676;44.610;44.078;2022-08-25T10:14:43;100027.97;;;33.40;20.82
55757;BME280;41676;44.610;44.078;2022-08-25T10:19:44;100074.69;;;33.83;21.23
55757;BME280;41676;44.610;44.078;2022-08-25T10:24:44;100054.25;;;33.84;20.82
55757;BME280;41676;44.610;44.078;2022-08-25T10:35:03;100052.94;;;33.82;21.42
55757;BME280;41676;44.610;44.078;2022-08-25T10:45:27;100042.38;;;33.93;21.70
55757;BME280;41676;44.610;44.078;2022-08-25T10:56:06;100047.34;;;33.99;21.37
55757;BME280;41676;44.610;44.078;2022-08-25T11:07:19;100013.53;;;33.90;21.87
55757;BME280;41676;44.610;44.078;2022-08-25T11:12:38;100040.69;;;34.00;21.68
55757;BME280;41676;44.610;44.078;2022-08-25T11:17:42;100024.56;;;33.90;21.46
55757;BME280;41676;44.610;44.078;2022-08-25T11:22:51;100028.91;;;33.91;21.47
55757;BME280;41676;44.610;44.078;2022-08-25T11:28:02;100030.16;;;34.02;22.20
55757;BME280;41676;44.610;44.078;2022-08-25T11:33:06;99993.19;;;33.74;22.09
55757;BME280;41676;44.610;44.078;2022-08-25T11:49:02;100015.09;;;33.70;23.38
55757;BME280;41676;44.610;44.078;2022-08-25T12:04:50;100013.94;;;33.24;23.79
55757;BME280;41676;44.610;44.078;2022-08-25T12:15:22;99949.72;;;32.94;23.67
55757;BME280;41676;44.610;44.078;2022-08-25T12:25:57;100026.41;;;33.13;22.70
55757;BME280;41676;44.610;44.078;2022-08-25T12:31:15;99963.34;;;32.73;23.82
55757;BME280;41676;44.610;44.078;2022-08-25T12:36:29;100021.09;;;32.99;23.18
55757;BME280;41676;44.610;44.078;2022-08-25T12:41:30;100021.41;;;32.97;23.62
55757;BME280;41676;44.610;44.078;2022-08-25T12:46:34;99905.59;;;32.21;24.20
55757;BME280;41676;44.610;44.078;2022-08-25T13:17:50;99974.44;;;31.90;24.47
55757;BME280;41676;44.610;44.078;2022-08-25T13:22:56;100019.56;;;32.15;24.52
55757;BME280;41676;44.610;44.078;2022-08-25T13:28:00;100026.94;;;31.97;24.69
55757;BME280;41676;44.610;44.078;2022-08-25T13:33:17;100026.47;;;32.03;24.14
55757;BME280;41676;44.610;44.078;2022-08-25T13:38:18;100002.31;;;31.74;24.70
55757;BME280;41676;44.610;44.078;2022-08-25T13:43:19;99993.16;;;31.48;24.53
55757;BME280;41676;44.610;44.078;2022-08-25T13:48:35;99970.88;;;31.18;24.61
55757;BME280;41676;44.610;44.078;2022-08-25T13:53:37;99975.97;;;31.11;24.76
55757;BME280;41676;44.610;44.078;2022-08-25T13:58:41;100006.66;;;31.13;24.45
55757;BME280;41676;44.610;44.078;2022-08-25T14:03:45;100029.91;;;31.15;24.41
55757;BME280;41676;44.610;44.078;2022-08-25T14:19:21;99984.56;;;30.51;25.11
55757;BME280;41676;44.610;44.078;2022-08-25T14:24:23;100021.59;;;30.62;25.18
55757;BME280;41676;44.610;44.078;2022-08-25T14:29:24;100009.16;;;30.42;24.96
55757;BME280;41676;44.610;44.078;2022-08-25T14:34:32;100000.97;;;30.14;24.69
55757;BME280;41676;44.610;44.078;2022-08-25T14:39:36;100016.78;;;30.17;25.05
55757;BME280;41676;44.610;44.078;2022-08-25T14:44:37;99962.78;;;29.68;25.16
55757;BME280;41676;44.610;44.078;2022-08-25T14:49:41;100034.06;;;29.90;24.95
55757;BME280;41676;44.610;44.078;2022-08-25T14:54:45;99997.88;;;29.66;25.35
55757;BME280;41676;44.610;44.078;2022-08-25T14:59:46;99977.41;;;29.30;25.94
55757;BME280;41676;44.610;44.078;2022-08-25T15:04:59;99986.13;;;29.19;25.63
55757;BME280;41676;44.610;44.078;2022-08-25T15:10:01;100029.72;;;29.29;25.54
55757;BME280;41676;44.610;44.078;2022-08-25T15:15:02;100030.06;;;29.08;26.28
55757;BME280;41676;44.610;44.078;2022-08-25T15:20:04;100046.25;;;29.05;26.65
55757;BME280;41676;44.610;44.078;2022-08-25T15:25:05;100050.50;;;28.92;26.72
55757;BME280;41676;44.610;44.078;2022-08-25T15:30:07;100057.03;;;28.77;27.29
55757;BME280;41676;44.610;44.078;2022-08-25T15:35:08;99983.59;;;28.14;27.66
55757;BME280;41676;44.610;44.078;2022-08-25T15:40:09;100051.25;;;28.41;28.18
55757;BME280;41676;44.610;44.078;2022-08-25T15:45:10;100060.22;;;28.22;28.22
55757;BME280;41676;44.610;44.078;2022-08-25T15:50:16;100058.84;;;28.01;28.62
55757;BME280;41676;44.610;44.078;2022-08-25T15:55:17;100055.75;;;27.84;29.12
55757;BME280;41676;44.610;44.078;2022-08-25T16:00:18;100061.31;;;27.73;29.97
55757;BME280;41676;44.610;44.078;2022-08-25T16:05:19;100077.50;;;27.65;31.33
55757;BME280;41676;44.610;44.078;2022-08-25T16:10:20;100076.81;;;27.49;33.03
55757;BME280;41676;44.610;44.078;2022-08-25T16:15:21;100083.50;;;27.33;34.16
55757;BME280;41676;44.610;44.078;2022-08-25T16:20:22;100100.00;;;27.12;35.03
55757;BME280;41676;44.610;44.078;2022-08-25T16:25:23;100032.22;;;26.61;35.92
55757;BME280;41676;44.610;44.078;2022-08-25T16:30:24;100054.31;;;26.54;36.67
55757;BME280;41676;44.610;44.078;2022-08-25T16:35:25;100049.50;;;26.31;40.86
55757;BME280;41676;44.610;44.078;2022-08-25T16:40:27;100086.75;;;26.40;42.51
55757;BME280;41676;44.610;44.078;2022-08-25T16:45:29;100105.34;;;26.28;43.82
55757;BME280;41676;44.610;44.078;2022-08-25T16:50:30;100009.19;;;25.42;44.99
55757;BME280;41676;44.610;44.078;2022-08-25T16:55:31;100081.50;;;25.74;45.87
55757;BME280;41676;44.610;44.078;2022-08-25T17:00:35;100055.72;;;25.41;47.36
55757;BME280;41676;44.610;44.078;2022-08-25T17:05:41;100129.66;;;25.63;48.45
55757;BME280;41676;44.610;44.078;2022-08-25T17:10:42;100126.41;;;25.56;47.94
55757;BME280;41676;44.610;44.078;2022-08-25T17:15:45;100089.72;;;25.28;48.19
55757;BME280;41676;44.610;44.078;2022-08-25T17:21:06;100117.16;;;25.32;48.41
55757;BME280;41676;44.610;44.078;2022-08-25T17:26:08;100100.81;;;25.11;47.91
55757;BME280;41676;44.610;44.078;2022-08-25T17:31:11;100110.03;;;25.00;48.15
55757;BME280;41676;44.610;44.078;2022-08-25T17:36:12;100095.84;;;24.82;47.78
55757;BME280;41676;44.610;44.078;2022-08-25T17:41:13;100120.03;;;24.79;48.35
55757;BME280;41676;44.610;44.078;2022-08-25T17:46:14;100050.03;;;24.28;48.62
55757;BME280;41676;44.610;44.078;2022-08-25T17:51:15;100120.81;;;24.59;48.33
55757;BME280;41676;44.610;44.078;2022-08-25T17:56:18;100108.47;;;24.41;48.88
55757;BME280;41676;44.610;44.078;2022-08-25T18:01:25;99995.22;;;23.63;49.06
55757;BME280;41676;44.610;44.078;2022-08-25T18:06:28;100111.09;;;24.21;49.30
55757;BME280;41676;44.610;44.078;2022-08-25T18:11:31;100044.34;;;23.72;49.40
55757;BME280;41676;44.610;44.078;2022-08-25T18:16:32;100103.66;;;24.01;49.48
55757;BME280;41676;44.610;44.078;2022-08-25T18:21:33;100032.81;;;23.50;49.80
55757;BME280;41676;44.610;44.078;2022-08-25T18:26:35;100070.13;;;23.69;49.74
55757;BME280;41676;44.610;44.078;2022-08-25T18:31:36;100095.63;;;23.74;49.67
55757;BME280;41676;44.610;44.078;2022-08-25T18:36:37;100093.38;;;23.65;49.62
55757;BME280;41676;44.610;44.078;2022-08-25T18:41:40;100089.78;;;23.55;49.59
55757;BME280;41676;44.610;44.078;2022-08-25T18:46:42;100078.88;;;23.50;49.51
55757;BME280;41676;44.610;44.078;2022-08-25T18:51:44;100079.13;;;23.43;49.14
55757;BME280;41676;44.610;44.078;2022-08-25T18:56:45;100050.75;;;23.18;49.58
55757;BME280;41676;44.610;44.078;2022-08-25T19:01:46;100013.59;;;22.87;48.94
55757;BME280;41676;44.610;44.078;2022-08-25T19:06:47;100014.31;;;22.77;49.63
55757;BME280;41676;44.610;44.078;2022-08-25T19:11:47;100063.59;;;23.01;50.35
55757;BME280;41676;44.610;44.078;2022-08-25T19:16:48;100072.75;;;22.95;51.16
55757;BME280;41676;44.610;44.078;2022-08-25T19:21:51;100078.31;;;22.88;52.00
55757;BME280;41676;44.610;44.078;2022-08-25T19:26:52;100073.06;;;22.76;52.74
55757;BME280;41676;44.610;44.078;2022-08-25T19:31:53;100073.53;;;22.68;53.01
55757;BME280;41676;44.610;44.078;2022-08-25T19:36:55;100011.94;;;22.31;53.33
55757;BME280;41676;44.610;44.078;2022-08-25T19:41:56;99998.97;;;22.11;53.63
55757;BME280;41676;44.610;44.078;2022-08-25T19:46:57;99992.41;;;22.07;54.29
55757;BME280;41676;44.610;44.078;2022-08-25T19:52:02;100055.78;;;22.33;55.61
55757;BME280;41676;44.610;44.078;2022-08-25T19:57:05;100048.63;;;22.22;55.63
55757;BME280;41676;44.610;44.078;2022-08-25T20:02:10;100052.31;;;22.16;56.75
55757;BME280;41676;44.610;44.078;2022-08-25T20:07:11;100056.09;;;22.15;57.52
55757;BME280;41676;44.610;44.078;2022-08-25T20:12:12;100037.19;;;21.98;58.53
55757;BME280;41676;44.610;44.078;2022-08-25T20:17:14;100051.09;;;22.07;59.54
55757;BME280;41676;44.610;44.078;2022-08-25T20:22:15;100054.88;;;22.06;60.75
55757;BME280;41676;44.610;44.078;2022-08-25T20:27:20;100064.00;;;22.00;63.54
55757;BME280;41676;44.610;44.078;2022-08-25T20:32:21;100062.88;;;21.96;63.18
55757;BME280;41676;44.610;44.078;2022-08-25T20:37:22;100054.13;;;21.88;63.87
55757;BME280;41676;44.610;44.078;2022-08-25T20:42:23;100051.69;;;21.87;64.69
55757;BME280;41676;44.610;44.078;2022-08-25T20:47:24;99978.59;;;21.43;65.70
55757;BME280;41676;44.610;44.078;2022-08-25T20:52:25;99985.94;;;21.48;65.74
55757;BME280;41676;44.610;44.078;2022-08-25T20:57:26;100045.38;;;21.81;66.48
55757;BME280;41676;44.610;44.078;2022-08-25T21:02:27;99985.13;;;21.47;66.40
55757;BME280;41676;44.610;44.078;2022-08-25T21:07:28;100012.63;;;21.61;66.26
55757;BME280;41676;44.610;44.078;2022-08-25T21:12:29;100017.88;;;21.68;66.35
55757;BME280;41676;44.610;44.078;2022-08-25T21:17:30;99945.63;;;21.24;65.70
55757;BME280;41676;44.610;44.078;2022-08-25T21:22:33;100027.88;;;21.67;65.88
55757;BME280;41676;44.610;44.078;2022-08-25T21:27:34;100007.22;;;21.61;65.24
55757;BME280;41676;44.610;44.078;2022-08-25T21:32:35;99947.91;;;21.15;64.78
55757;BME280;41676;44.610;44.078;2022-08-25T21:37:36;99942.16;;;21.12;64.48
55757;BME280;41676;44.610;44.078;2022-08-25T21:42:37;99930.81;;;21.10;64.40
55757;BME280;41676;44.610;44.078;2022-08-25T21:47:38;99998.41;;;21.49;64.11
55757;BME280;41676;44.610;44.078;2022-08-25T21:52:41;100006.22;;;21.45;63.61
55757;BME280;41676;44.610;44.078;2022-08-25T21:57:42;99964.69;;;21.17;63.33
55757;BME280;41676;44.610;44.078;2022-08-25T22:02:43;99971.28;;;21.27;62.68
55757;BME280;41676;44.610;44.078;2022-08-25T22:07:45;99983.50;;;21.29;62.59
55757;BME280;41676;44.610;44.078;2022-08-25T22:12:46;99862.91;;;20.50;62.38
55757;BME280;41676;44.610;44.078;2022-08-25T22:17:48;99961.16;;;21.17;61.70
55757;BME280;41676;44.610;44.078;2022-08-25T22:22:48;99922.97;;;20.91;61.48
55757;BME280;41676;44.610;44.078;2022-08-25T22:27:49;99978.59;;;21.26;61.41
55757;BME280;41676;44.610;44.078;2022-08-25T22:32:50;99964.69;;;21.17;61.32
55757;BME280;41676;44.610;44.078;2022-08-25T22:37:51;99898.34;;;20.71;61.49
55757;BME280;41676;44.610;44.078;2022-08-25T22:42:52;99957.56;;;21.11;61.56
55757;BME280;41676;44.610;44.078;2022-08-25T22:47:53;99882.06;;;20.66;61.50
55757;BME280;41676;44.610;44.078;2022-08-25T22:52:55;99841.91;;;20.36;62.16
55757;BME280;41676;44.610;44.078;2022-08-25T22:57:55;99932.13;;;20.90;62.21
55757;BME280;41676;44.610;44.078;2022-08-25T23:02:56;99962.31;;;21.04;62.47
55757;BME280;41676;44.610;44.078;2022-08-25T23:07:57;99927.38;;;20.81;62.81
55757;BME280;41676;44.610;44.078;2022-08-25T23:12:59;99949.63;;;21.05;63.49
55757;BME280;41676;44.610;44.078;2022-08-25T23:18:00;99953.81;;;20.95;64.30
55757;BME280;41676;44.610;44.078;2022-08-25T23:23:00;99922.97;;;20.74;65.11
55757;BME280;41676;44.610;44.078;2022-08-25T23:28:02;99942.44;;;20.93;65.20
55757;BME280;41676;44.610;44.078;2022-08-25T23:33:03;99947.09;;;20.81;66.12
55757;BME280;41676;44.610;44.078;2022-08-25T23:38:04;99943.91;;;20.84;66.63
55757;BME280;41676;44.610;44.078;2022-08-25T23:43:05;99948.75;;;20.82;67.34
55757;BME280;41676;44.610;44.078;2022-08-25T23:48:06;99963.38;;;20.86;67.91
55757;BME280;41676;44.610;44.078;2022-08-25T23:53:08;99957.09;;;20.81;68.45
55757;BME280;41676;44.610;44.078;2022-08-25T23:58:09;99931.97;;;20.63;68.64
